Time;durP1;ratioP1;P1;durP2;ratioP2;P2;SDS_P1;SDS_P2;PMS_P1;PMS_P2;Temp;Humidity;BMP_temperature;BMP_pressure;BME280_temperature;BME280_humidity;BME280_pressure;Samples;Min_cycle;Max_cycle;Signal;HPM_P1;HPM_P2
2022/07/03 14:56:22;;;;;;;6.13;4.47;;;43.50;29.60;;;37.56;22.90;95673.53;5021702;28;20489;-54
2022/07/03 14:58:50;;;;;;;3.53;3.33;;;43.50;26.80;;;37.43;23.74;95667.91;4969157;28;20050;-51
2022/07/03 15:01:18;;;;;;;3.67;3.08;;;43.30;25.60;;;37.25;24.92;95662.06;4958578;28;20567;-49
2022/07/03 15:04:25;;;;;;;3.85;3.42;;;43.20;25.20;;;37.01;26.04;95662.28;4978504;28;20026;-53
2022/07/03 15:07:00;;;;;;;3.25;3.05;;;43.00;25.10;;;36.68;24.25;95658.72;4945911;28;20023;-53
2022/07/03 15:09:41;;;;;;;3.25;3.00;;;43.00;24.60;;;36.76;25.68;95649.00;4945717;29;20262;-52
2022/07/03 15:12:28;;;;;;;4.78;4.38;;;43.50;24.00;;;36.67;25.72;95642.47;4950071;28;20034;-54
2022/07/03 15:14:54;;;;;;;3.95;3.55;;;43.80;23.70;;;36.81;23.80;95640.13;4944029;29;20058;-52
2022/07/03 15:17:27;;;;;;;5.13;4.82;;;44.80;22.90;;;37.34;22.51;95640.00;4960443;28;20031;-54
2022/07/03 15:20:01;;;;;;;5.40;4.95;;;46.50;21.80;;;38.10;22.67;95641.44;4931707;28;20469;-52
2022/07/03 15:22:32;;;;;;;6.03;5.47;;;48.20;20.80;;;38.78;20.68;95645.66;4938766;28;20027;-56
2022/07/03 15:24:59;;;;;;;5.22;4.82;;;49.60;19.80;;;38.93;22.83;95648.00;4937256;28;20041;-54
2022/07/03 15:27:34;;;;;;;4.25;3.95;;;49.10;19.90;;;38.95;23.63;95637.97;4944255;29;20026;-50
2022/07/03 15:30:03;;;;;;;6.38;5.05;;;48.70;20.10;;;39.08;22.64;95641.50;4953645;28;20034;-54
2022/07/03 15:32:29;;;;;;;7.13;5.38;;;49.10;19.90;;;38.92;24.45;95643.66;4963029;28;20029;-54
2022/07/03 15:34:59;;;;;;;5.43;3.78;;;48.90;20.00;;;38.93;24.18;95640.44;4960022;28;20031;-55
2022/07/03 15:38:13;;;;;;;4.32;3.97;;;48.80;20.00;;;38.44;21.54;95640.03;4974066;28;20381;-55
2022/07/03 15:40:55;;;;;;;5.90;3.50;;;48.00;20.10;;;37.99;21.71;95638.22;4948287;28;20034;-50
2022/07/03 15:44:05;;;;;;;4.05;3.28;;;47.10;19.70;;;37.77;22.71;95638.03;4955245;28;20530;-50
2022/07/03 15:46:58;;;;;;;3.33;3.05;;;46.20;20.00;;;37.34;24.28;95639.22;4960460;28;20377;-51
2022/07/03 15:49:40;;;;;;;5.22;4.72;;;45.40;20.70;;;37.31;23.98;95631.75;4947355;28;20026;-54
2022/07/03 15:52:27;;;;;;;4.93;3.95;;;45.90;20.50;;;37.78;24.27;95628.47;4941653;28;20044;-52
2022/07/03 15:55:10;;;;;;;3.47;3.28;;;47.00;19.90;;;37.69;22.84;95629.13;4956840;28;20046;-51
2022/07/03 15:58:05;;;;;;;4.00;3.40;;;46.50;19.70;;;37.28;26.66;95625.84;4956395;28;20027;-53
2022/07/03 16:00:38;;;;;;;3.22;3.03;;;45.70;21.30;;;36.96;27.21;95626.69;4943675;29;20059;-50
2022/07/03 16:03:27;;;;;;;3.75;2.97;;;45.10;21.40;;;36.81;28.34;95623.50;4940093;28;20397;-53
2022/07/03 16:05:56;;;;;;;3.15;2.95;;;44.60;22.20;;;36.65;28.65;95617.97;4943972;28;20435;-53
2022/07/03 16:08:26;;;;;;;3.00;2.80;;;44.30;22.60;;;36.50;28.92;95622.25;4929466;28;20027;-53
2022/07/03 16:11:03;;;;;;;2.72;2.60;;;44.60;22.50;;;36.13;29.63;95614.03;4989153;28;20157;-53
2022/07/03 16:13:34;;;;;;;4.07;2.88;;;44.30;23.40;;;35.76;30.30;95615.22;5005971;28;20041;-55
2022/07/03 16:16:00;;;;;;;2.93;2.30;;;43.90;23.20;;;35.56;31.71;95615.22;4962493;28;20022;-54
2022/07/03 16:18:29;;;;;;;4.28;2.60;;;43.70;23.50;;;35.13;31.76;95616.03;4919892;28;20482;-50
2022/07/03 16:20:55;;;;;;;3.50;3.20;;;43.10;24.00;;;34.69;33.00;95614.41;4947488;28;20090;-51
2022/07/03 16:23:23;;;;;;;3.85;3.42;;;43.10;24.20;;;34.68;33.38;95608.09;4943409;28;20035;-52
2022/07/03 16:25:56;;;;;;;4.95;4.50;;;44.60;23.60;;;35.11;31.82;95609.34;4932710;28;20070;-55
2022/07/03 16:28:29;;;;;;;5.03;4.53;;;46.30;22.60;;;35.69;30.42;95613.34;4974717;28;20529;-53
2022/07/03 16:31:10;;;;;;;5.18;4.82;;;47.70;21.60;;;36.22;26.61;95612.63;4980400;28;20022;-54
2022/07/03 16:33:49;;;;;;;5.75;5.25;;;49.20;20.40;;;36.96;25.58;95612.03;4941037;28;20027;-56
2022/07/03 16:36:26;;;;;;;6.25;5.72;;;50.20;19.40;;;37.13;24.92;95610.03;4944755;28;20099;-54
2022/07/03 16:39:09;;;;;;;7.00;6.40;;;51.10;18.70;;;37.24;26.28;95605.75;4946942;28;20519;-50
2022/07/03 16:41:42;;;;;;;7.72;6.97;;;51.90;18.30;;;37.83;25.12;95598.16;4930623;28;20059;-52
2022/07/03 16:44:11;;;;;;;7.80;7.18;;;52.50;17.80;;;38.36;25.28;95601.28;4930738;29;20462;-53
2022/07/03 16:46:45;;;;;;;8.18;7.68;;;52.90;17.60;;;38.13;24.84;95601.63;4930418;29;20369;-52
2022/07/03 16:49:14;;;;;;;6.75;6.25;;;53.20;17.20;;;38.51;23.78;95593.28;4930977;29;20042;-54
2022/07/03 16:51:55;;;;;;;7.15;6.65;;;53.50;16.90;;;38.24;22.76;95593.75;4930538;29;20027;-53
2022/07/03 16:54:22;;;;;;;8.15;7.45;;;53.70;16.60;;;38.47;23.60;95594.63;4931230;29;20046;-54
2022/07/03 16:56:50;;;;;;;6.53;6.13;;;53.70;16.40;;;38.59;24.50;95599.41;4943971;29;20055;-55
2022/07/03 16:59:18;;;;;;;6.70;5.78;;;53.70;16.40;;;38.48;25.40;95598.97;4958548;28;20058;-50
2022/07/03 17:01:45;;;;;;;7.85;7.18;;;53.90;16.50;;;38.15;25.15;95599.19;4950385;28;20026;-51
2022/07/03 17:04:13;;;;;;;5.78;5.47;;;54.10;16.30;;;38.34;25.22;95595.41;4993860;28;20032;-55
2022/07/03 17:06:42;;;;;;;4.70;4.10;;;53.60;16.40;;;37.89;25.01;95599.16;4959460;28;20026;-51
2022/07/03 17:09:12;;;;;;;4.55;4.15;;;51.70;17.00;;;37.40;26.07;95590.25;4974449;28;20034;-57
2022/07/03 17:11:42;;;;;;;;;;;50.00;18.00;;;37.00;27.64;95594.09;4972683;28;20096;-56
2022/07/03 17:14:11;;;;;;;3.33;3.13;;;49.90;18.20;;;36.42;27.30;95593.94;4968290;28;19934;-55
2022/07/03 17:16:55;;;;;;;3.63;3.08;;;49.90;17.90;;;36.20;28.15;95581.78;4995833;28;20063;-59
2022/07/03 17:19:26;;;;;;;3.58;2.60;;;48.60;19.00;;;35.67;29.42;95582.53;4964290;28;20038;-47
2022/07/03 17:21:55;;;;;;;5.90;3.63;;;47.00;19.60;;;34.96;30.97;95583.91;4962446;28;20093;-55
2022/07/03 17:24:32;;;;;;;4.63;2.50;;;45.30;20.70;;;34.17;30.32;95576.91;4962790;28;20033;-49
2022/07/03 17:27:06;;;;;;;3.63;2.50;;;43.70;21.60;;;33.47;32.93;95582.97;4963654;28;20024;-48
2022/07/03 17:30:07;;;;;;;3.15;2.60;;;42.20;22.70;;;32.95;35.11;95583.91;4993533;28;20014;-58
2022/07/03 17:32:46;;;;;;;3.13;2.83;;;40.90;24.00;;;32.48;35.66;95582.78;4951044;28;20076;-47
2022/07/03 17:35:25;;;;;;;3.28;2.30;;;39.80;25.00;;;31.95;36.01;95581.97;4942831;28;20377;-53
2022/07/03 17:38:00;;;;;;;2.65;2.08;;;38.90;25.80;;;31.53;36.46;95570.00;4947613;29;20049;-49
2022/07/03 17:40:29;;;;;;;2.05;1.95;;;38.10;26.50;;;31.17;38.16;95574.81;4933505;28;20428;-50
2022/07/03 17:43:03;;;;;;;4.45;2.60;;;37.30;27.10;;;30.82;39.81;95578.47;4947370;28;20916;-48
2022/07/03 17:45:29;;;;;;;5.70;3.20;;;36.60;28.50;;;30.47;40.77;95582.03;4935646;28;20054;-48
2022/07/03 17:48:02;;;;;;;3.72;2.38;;;36.00;29.00;;;29.99;41.90;95580.38;4975595;28;20514;-47
2022/07/03 17:50:35;;;;;;;4.57;2.50;;;35.50;29.60;;;29.64;40.31;95575.59;4945622;28;20026;-51
2022/07/03 17:53:12;;;;;;;3.40;2.70;;;35.00;30.20;;;29.41;42.07;95578.66;4924719;29;20153;-46
2022/07/03 17:55:45;;;;;;;2.92;1.90;;;34.60;30.90;;;29.25;42.04;95585.25;4939504;29;20047;-55
2022/07/03 17:58:15;;;;;;;3.67;2.05;;;34.20;31.30;;;29.12;42.63;95586.75;4923718;29;20419;-48
2022/07/03 18:00:41;;;;;;;2.10;1.90;;;33.90;31.90;;;28.85;42.75;95586.19;4967997;28;20079;-50
2022/07/03 18:03:09;;;;;;;4.13;2.20;;;33.60;32.20;;;28.66;44.56;95586.47;4974707;28;20029;-48
2022/07/03 18:05:42;;;;;;;2.75;2.10;;;33.30;32.90;;;28.26;44.43;95580.66;4987043;28;20020;-46
2022/07/03 18:08:46;;;;;;;2.42;1.70;;;33.00;33.50;;;27.99;46.46;95582.00;4968522;28;20034;-51
2022/07/03 18:11:51;;;;;;;3.05;2.08;;;32.60;34.00;;;27.80;45.14;95577.50;4971474;28;20039;-53
2022/07/03 18:14:35;;;;;;;2.90;1.92;;;32.30;34.70;;;27.58;46.22;95576.47;4933081;28;20027;-53
2022/07/03 18:17:09;;;;;;;3.60;3.30;;;32.00;35.10;;;27.34;46.63;95581.28;4929200;29;20023;-52
2022/07/03 18:19:48;;;;;;;3.40;2.85;;;31.80;35.30;;;27.28;46.65;95571.03;4929119;29;20037;-46
2022/07/03 18:22:14;;;;;;;4.20;2.10;;;31.60;36.00;;;27.20;46.29;95561.94;4926490;28;20060;-45
2022/07/03 18:24:44;;;;;;;2.03;1.83;;;31.40;36.00;;;26.99;46.53;95559.72;4928352;28;20393;-50
2022/07/03 18:27:15;;;;;;;1.80;1.60;;;31.30;36.30;;;26.85;47.46;95557.56;4930670;29;20043;-47
2022/07/03 18:29:47;;;;;;;2.17;1.98;;;31.10;36.70;;;26.75;47.64;95552.75;4940998;28;20045;-51
2022/07/03 18:32:18;;;;;;;3.83;2.08;;;30.90;37.10;;;26.66;47.93;95549.50;4946025;29;20511;-46
2022/07/03 18:34:49;;;;;;;2.00;1.80;;;30.70;37.30;;;26.52;48.51;95545.44;4932394;29;20046;-48
2022/07/03 18:37:19;;;;;;;3.58;1.65;;;30.50;37.70;;;26.43;48.79;95558.53;4930967;28;20088;-46
2022/07/03 18:39:45;;;;;;;3.55;1.70;;;30.40;38.00;;;26.25;48.58;95554.72;4943374;29;20118;-51
2022/07/03 18:42:12;;;;;;;2.53;2.20;;;30.20;38.00;;;26.07;48.97;95552.50;4929059;28;20015;-47
2022/07/03 18:44:38;;;;;;;2.53;1.70;;;30.00;38.30;;;25.92;50.64;95547.19;4927112;29;20066;-46
2022/07/03 18:47:05;;;;;;;2.75;1.50;;;29.90;38.80;;;25.82;49.51;95548.56;4928364;28;20543;-46
2022/07/03 18:49:35;;;;;;;2.17;1.88;;;29.70;39.10;;;25.71;50.58;95553.03;4928368;29;20031;-48
2022/07/03 18:52:19;;;;;;;5.43;1.58;;;29.60;39.40;;;25.52;51.27;95556.56;4929890;29;20056;-47
2022/07/03 18:55:25;;;;;;;4.00;1.80;;;29.40;39.90;;;25.45;51.74;95559.19;4912547;28;20133;-50
2022/07/03 18:58:33;;;;;;;3.35;1.73;;;29.20;40.20;;;25.26;51.93;95554.50;4927374;28;20030;-49
2022/07/03 19:01:05;;;;;;;6.63;1.80;;;29.00;40.60;;;25.13;52.97;95559.31;4928547;29;20518;-48
2022/07/03 19:04:42;;;;;;;1.90;1.80;;;28.90;40.90;;;25.01;52.37;95552.06;4942269;29;20381;-47
2022/07/03 19:07:15;;;;;;;1.58;1.48;;;28.70;41.00;;;24.85;53.08;95540.41;5002011;28;20040;-47
2022/07/03 19:10:06;;;;;;;2.63;2.03;;;28.50;41.30;;;24.77;53.42;95542.22;4928084;28;20035;-49
2022/07/03 19:13:02;;;;;;;3.72;1.92;;;28.40;41.70;;;24.70;52.09;95542.84;4936836;29;20023;-48
2022/07/03 19:15:33;;;;;;;1.75;1.38;;;28.30;41.70;;;24.71;52.54;95538.19;4929521;29;20062;-51
2022/07/03 19:17:59;;;;;;;2.25;1.60;;;28.20;41.70;;;24.68;53.14;95556.00;4928365;29;20394;-49
2022/07/03 19:20:25;;;;;;;3.88;1.60;;;28.10;42.00;;;24.55;53.85;95546.41;4930458;29;20027;-45
2022/07/03 19:22:55;;;;;;;1.58;1.42;;;28.00;43.00;;;24.40;54.05;95552.63;4937068;29;20023;-46
2022/07/03 19:25:21;;;;;;;4.22;1.73;;;27.90;42.80;;;24.29;54.11;95557.84;4911435;28;20023;-46
2022/07/03 19:27:47;;;;;;;2.85;1.90;;;27.80;42.80;;;24.20;55.32;95563.47;4936525;29;20108;-47
2022/07/03 19:30:16;;;;;;;1.30;1.20;;;27.70;43.20;;;24.10;56.76;95552.31;4950231;28;20045;-46
2022/07/03 19:32:45;;;;;;;2.20;1.60;;;27.60;43.70;;;24.02;56.43;95557.56;4931285;29;20039;-46
2022/07/03 19:35:20;;;;;;;1.70;1.60;;;27.60;43.90;;;23.91;55.19;95574.75;4931849;29;20126;-46
2022/07/03 19:37:47;;;;;;;3.78;2.00;;;27.40;44.00;;;23.88;56.40;95579.00;4942154;29;20050;-46
2022/07/03 19:40:15;;;;;;;3.38;2.50;;;27.40;44.20;;;23.91;56.09;95582.94;4936913;29;20034;-45
2022/07/03 19:42:47;;;;;;;2.13;1.55;;;27.40;44.40;;;23.93;55.30;95589.59;4928569;29;20015;-46
2022/07/03 19:45:14;;;;;;;3.38;1.70;;;27.30;44.50;;;23.95;55.22;95605.59;4931468;29;20413;-47
2022/07/03 19:47:41;;;;;;;2.15;1.50;;;27.30;44.40;;;23.97;55.24;95617.69;4943210;29;20038;-46
2022/07/03 19:50:10;;;;;;;2.33;1.60;;;27.30;44.60;;;23.98;54.76;95629.38;4929336;28;20031;-45
2022/07/03 19:52:39;;;;;;;1.73;1.50;;;27.30;44.70;;;24.01;54.40;95645.00;4932978;28;20023;-46
2022/07/03 19:55:07;;;;;;;3.25;1.40;;;27.30;44.70;;;24.06;54.24;95666.47;4948147;28;20138;-55
2022/07/03 19:57:39;;;;;;;1.60;1.50;;;27.30;44.60;;;24.12;53.31;95667.81;4934606;28;20015;-45
2022/07/03 20:00:08;;;;;;;2.72;1.50;;;27.30;44.60;;;24.20;52.57;95671.53;4946749;28;20027;-48
2022/07/03 20:02:38;;;;;;;2.00;1.80;;;27.30;44.30;;;24.25;51.95;95679.41;4945667;28;20027;-45
2022/07/03 20:05:05;;;;;;;4.65;1.50;;;27.40;44.20;;;24.31;51.86;95688.91;4930975;29;20580;-45
2022/07/03 20:07:32;;;;;;;1.95;1.50;;;27.40;43.90;;;24.34;51.03;95695.56;4929174;28;20031;-50
2022/07/03 20:09:58;;;;;;;1.60;1.50;;;27.50;43.70;;;24.38;51.32;95705.44;4930867;28;20035;-48
2022/07/03 20:12:25;;;;;;;1.50;1.30;;;27.50;43.60;;;24.41;50.71;95704.75;4933698;29;20035;-47
2022/07/03 20:14:54;;;;;;;2.30;1.17;;;27.60;43.50;;;24.45;50.21;95696.69;4944966;29;20052;-47
2022/07/03 20:17:26;;;;;;;3.75;1.30;;;27.60;43.40;;;24.46;50.01;95695.53;4948608;28;20084;-46
2022/07/03 20:19:55;;;;;;;2.67;1.40;;;27.60;43.20;;;24.46;50.33;95704.47;4933428;29;20081;-47
2022/07/03 20:22:21;;;;;;;3.95;1.30;;;27.60;43.60;;;24.46;50.08;95700.97;4939313;29;20060;-52
2022/07/03 20:24:49;;;;;;;3.55;1.88;;;27.60;42.90;;;24.44;49.86;95690.44;4944925;29;20621;-48
2022/07/03 20:27:16;;;;;;;2.08;1.40;;;27.60;42.80;;;24.43;51.06;95694.28;4934828;29;20035;-47
2022/07/03 20:29:46;;;;;;;1.30;1.20;;;27.60;42.90;;;24.36;53.23;95685.13;4916515;28;20471;-45
2022/07/03 20:32:17;;;;;;;3.00;1.42;;;27.60;43.40;;;24.24;53.90;95678.63;4948968;28;20370;-45
2022/07/03 20:34:43;;;;;;;3.28;1.30;;;27.60;43.70;;;24.12;53.65;95686.06;4939032;28;20219;-53
2022/07/03 20:37:13;;;;;;;2.53;1.40;;;27.50;44.40;;;24.04;53.46;95689.72;4924944;28;20031;-49
2022/07/03 20:39:42;;;;;;;5.00;1.45;;;27.40;43.90;;;23.99;53.69;95698.94;4926955;28;20417;-52
2022/07/03 20:42:11;;;;;;;2.03;1.35;;;27.40;44.00;;;23.95;53.11;95696.13;4954567;28;20417;-47
2022/07/03 20:44:39;;;;;;;2.78;1.40;;;27.30;44.00;;;23.93;52.58;95701.13;4973164;28;20698;-47
2022/07/03 20:47:11;;;;;;;3.13;1.42;;;27.30;44.00;;;23.97;52.35;95712.09;4988425;28;20028;-45
2022/07/03 20:49:40;;;;;;;1.48;1.23;;;27.30;44.00;;;23.97;51.71;95726.50;4987929;28;20495;-48
2022/07/03 20:52:15;;;;;;;3.97;1.45;;;27.30;43.80;;;24.00;52.02;95736.69;5001251;28;20128;-45
2022/07/03 20:54:41;;;;;;;2.25;1.13;;;27.30;43.80;;;24.01;51.59;95740.22;4987129;28;20050;-48
2022/07/03 20:57:10;;;;;;;1.58;1.20;;;27.30;43.80;;;24.00;52.10;95739.41;4990404;28;20028;-47
2022/07/03 20:59:39;;;;;;;2.60;1.17;;;27.30;43.90;;;24.06;52.75;95745.38;4990520;28;20388;-48
2022/07/03 21:02:05;;;;;;;3.38;1.45;;;27.30;44.10;;;24.07;53.00;95760.59;4975256;28;20060;-46
2022/07/03 21:04:43;;;;;;;4.32;1.60;;;27.20;44.20;;;24.01;55.86;95765.47;4955180;28;20022;-48
2022/07/03 21:07:24;;;;;;;1.92;1.73;;;27.20;45.00;;;23.95;55.03;95771.50;4979905;28;20405;-45
2022/07/03 21:09:50;;;;;;;2.97;1.80;;;27.20;45.20;;;23.89;56.54;95787.28;4974870;28;20026;-46
2022/07/03 21:12:16;;;;;;;2.00;1.45;;;27.10;45.40;;;23.80;56.39;95802.94;4978890;28;20496;-46
2022/07/03 21:14:42;;;;;;;5.05;1.80;;;27.00;45.60;;;23.63;57.68;95808.59;4970956;28;20037;-44
2022/07/03 21:17:09;;;;;;;2.25;1.60;;;27.00;46.00;;;23.55;59.91;95813.06;4990004;28;20018;-47
2022/07/03 21:19:34;;;;;;;3.03;2.05;;;26.90;46.70;;;23.56;62.21;95820.06;4970976;28;20030;-46
2022/07/03 21:22:01;;;;;;;4.00;1.63;;;26.70;47.30;;;23.47;58.87;95803.09;4983118;28;20443;-47
2022/07/03 21:24:27;;;;;;;10.10;2.00;;;26.70;47.70;;;23.32;63.69;95794.50;4992080;28;20365;-52
2022/07/03 21:26:54;;;;;;;5.30;1.67;;;26.50;48.30;;;23.02;66.65;95791.22;4991556;28;20037;-52
2022/07/03 21:29:22;;;;;;;1.98;1.77;;;26.40;49.00;;;22.76;66.89;95788.81;4989665;28;20116;-49
2022/07/03 21:31:57;;;;;;;4.60;1.88;;;26.20;49.70;;;22.47;69.22;95795.19;4973734;28;20026;-45
2022/07/03 21:34:23;;;;;;;3.90;1.90;;;26.00;50.50;;;22.21;68.81;95819.06;4972298;28;20060;-50
2022/07/03 21:36:49;;;;;;;3.42;1.80;;;25.90;50.70;;;22.01;68.01;95839.63;4983734;28;20033;-45
2022/07/03 21:39:18;;;;;;;3.83;1.80;;;25.70;51.00;;;21.97;67.13;95833.28;4972277;28;20033;-46
2022/07/03 21:41:45;;;;;;;3.25;1.70;;;25.60;51.20;;;21.89;66.63;95845.78;4971839;28;20041;-47
2022/07/03 21:44:11;;;;;;;1.98;1.48;;;25.50;51.30;;;21.80;65.29;95845.84;4977719;28;20350;-45
2022/07/03 21:46:37;;;;;;;2.97;1.38;;;25.40;51.40;;;21.77;65.76;95840.28;4973286;28;20056;-48
2022/07/03 21:49:10;;;;;;;4.10;1.52;;;25.20;51.30;;;21.72;66.07;95838.59;4971447;28;20100;-45
2022/07/03 21:51:42;;;;;;;3.67;1.50;;;25.20;51.60;;;21.68;66.56;95822.16;4971560;28;20026;-45
2022/07/03 21:54:08;;;;;;;6.32;1.80;;;25.10;51.60;;;21.61;69.08;95840.06;4975512;28;20113;-50
2022/07/03 21:56:34;;;;;;;4.20;1.98;;;24.90;51.90;;;21.53;70.48;95855.28;4969683;28;20109;-45
2022/07/03 21:59:11;;;;;;;6.43;2.13;;;24.80;52.60;;;21.39;71.40;95860.13;4987842;28;20495;-45
2022/07/03 22:01:37;;;;;;;10.75;1.70;;;24.80;53.20;;;21.25;71.34;95855.72;4972707;28;20398;-48
2022/07/03 22:04:03;;;;;;;4.03;1.90;;;24.70;53.30;;;21.18;72.23;95841.06;4976739;28;20022;-47
